Time,TemperatureF,DewpointF,PressureIn,WindDirection,WindDirectionDegrees,WindSpeedMPH,WindSpeedGustMPH,Humidity,HourlyPrecipIn,Conditions,Clouds,dailyrainin,SoftwareType,DateUTC
2013-10-04 00:01:00,64.4,62.6,30.14,SSW,205,0.0,0.0,94,0.00,,,0.00,WUHU216DAVISVP2,2013-10-04 04:01:00,
2013-10-04 00:06:00,64.4,62.9,30.13,SSW,205,0.0,0.0,95,0.00,,,0.00,WUHU216DAVISVP2,2013-10-04 04:06:00,
2013-10-04 00:12:00,64.4,62.9,30.13,SSW,205,0.0,0.0,95,0.00,,,0.00,WUHU216DAVISVP2,2013-10-04 04:12:00,
2013-10-04 00:17:00,64.4,62.9,30.13,SSW,205,0.0,0.0,95,0.00,,,0.00,WUHU216DAVISVP2,2013-10-04 04:17:00,
2013-10-04 00:22:00,64.3,62.8,30.13,SSW,205,0.0,0.0,95,0.00,,,0.00,WUHU216DAVISVP2,2013-10-04 04:22:00,
2013-10-04 00:33:00,64.3,62.8,30.13,SSW,205,0.0,0.0,95,0.00,,,0.00,WUHU216DAVISVP2,2013-10-04 04:33:00,
2013-10-04 00:35:00,64.3,62.8,30.13,SSW,205,0.0,0.0,95,0.00,,,0.00,WUHU216DAVISVP2,2013-10-04 04:35:00,
2013-10-04 00:38:00,64.2,62.7,30.14,SSW,205,0.0,0.0,95,0.00,,,0.00,WUHU216DAVISVP2,2013-10-04 04:38:00,
2013-10-04 00:44:00,64.1,62.6,30.13,SSW,205,0.0,0.0,95,0.00,,,0.00,WUHU216DAVISVP2,2013-10-04 04:44:00,
2013-10-04 00:49:00,64.0,62.5,30.13,SSW,205,0.0,0.0,95,0.00,,,0.00,WUHU216DAVISVP2,2013-10-04 04:49:00,
2013-10-04 00:54:00,63.9,62.4,30.13,SSW,205,0.0,0.0,95,0.00,,,0.00,WUHU216DAVISVP2,2013-10-04 04:54:00,
2013-10-04 01:00:00,63.8,62.3,30.13,SSW,205,0.0,0.0,95,0.00,,,0.00,WUHU216DAVISVP2,2013-10-04 05:00:00,
2013-10-04 01:05:00,63.6,62.1,30.13,SSW,205,0.0,0.0,95,0.00,,,0.00,WUHU216DAVISVP2,2013-10-04 05:05:00,
2013-10-04 01:10:00,63.5,62.0,30.13,SSW,205,0.0,0.0,95,0.00,,,0.00,WUHU216DAVISVP2,2013-10-04 05:10:00,
2013-10-04 01:16:00,63.4,61.9,30.13,SSW,205,0.0,0.0,95,0.00,,,0.00,WUHU216DAVISVP2,2013-10-04 05:16:00,
2013-10-04 01:21:00,63.4,61.9,30.13,SSW,205,0.0,0.0,95,0.00,,,0.00,WUHU216DAVISVP2,2013-10-04 05:21:00,
2013-10-04 01:26:00,63.3,61.8,30.13,SSW,205,0.0,0.0,95,0.00,,,0.00,WUHU216DAVISVP2,2013-10-04 05:26:00,
2013-10-04 01:31:00,63.4,61.9,30.13,SSW,205,0.0,0.0,95,0.00,,,0.00,WUHU216DAVISVP2,2013-10-04 05:31:00,
2013-10-04 01:36:00,63.7,62.5,30.13,SSW,205,0.0,0.0,96,0.00,,,0.00,WUHU216DAVISVP2,2013-10-04 05:36:00,
2013-10-04 01:42:00,63.6,62.4,30.13,SSW,205,0.0,0.0,96,0.00,,,0.00,WUHU216DAVISVP2,2013-10-04 05:42:00,
2013-10-04 01:47:00,63.5,62.0,30.13,SSW,205,0.0,0.0,95,0.00,,,0.00,WUHU216DAVISVP2,2013-10-04 05:47:00,
2013-10-04 01:52:00,63.5,62.3,30.13,SSW,205,0.0,0.0,96,0.00,,,0.00,WUHU216DAVISVP2,2013-10-04 05:52:00,
2013-10-04 01:57:00,63.4,62.2,30.13,SSW,205,0.0,0.0,96,0.00,,,0.00,WUHU216DAVISVP2,2013-10-04 05:57:00,
2013-10-04 02:02:00,63.3,61.8,30.13,SSW,205,0.0,0.0,95,0.00,,,0.00,WUHU216DAVISVP2,2013-10-04 06:02:00,
2013-10-04 02:07:00,63.2,62.0,30.13,SSW,205,0.0,0.0,96,0.00,,,0.00,WUHU216DAVISVP2,2013-10-04 06:07:00,
2013-10-04 02:13:00,63.1,61.9,30.13,SSW,205,0.0,0.0,96,0.00,,,0.00,WUHU216DAVISVP2,2013-10-04 06:13:00,
2013-10-04 02:18:00,63.1,61.9,30.13,SSW,205,0.0,0.0,96,0.00,,,0.00,WUHU216DAVISVP2,2013-10-04 06:18:00,
2013-10-04 02:23:00,63.0,61.8,30.13,SSW,205,0.0,0.0,96,0.00,,,0.00,WUHU216DAVISVP2,2013-10-04 06:23:00,
2013-10-04 02:28:00,62.9,61.7,30.13,SSW,205,0.0,0.0,96,0.00,,,0.00,WUHU216DAVISVP2,2013-10-04 06:28:00,
2013-10-04 02:33:00,62.8,61.3,30.13,SSW,205,0.0,0.0,95,0.00,,,0.00,WUHU216DAVISVP2,2013-10-04 06:33:00,
2013-10-04 02:38:00,62.8,61.6,30.14,SSW,205,0.0,0.0,96,0.00,,,0.00,WUHU216DAVISVP2,2013-10-04 06:38:00,
2013-10-04 02:43:00,62.8,61.6,30.13,SSW,205,0.0,0.0,96,0.00,,,0.00,WUHU216DAVISVP2,2013-10-04 06:43:00,
2013-10-04 02:49:00,62.6,61.4,30.13,SSW,205,0.0,0.0,96,0.00,,,0.00,WUHU216DAVISVP2,2013-10-04 06:49:00,
2013-10-04 02:54:00,62.6,61.4,30.13,SSW,205,0.0,0.0,96,0.00,,,0.00,WUHU216DAVISVP2,2013-10-04 06:54:00,
2013-10-04 02:59:00,62.7,61.5,30.13,SSW,205,0.0,0.0,96,0.00,,,0.00,WUHU216DAVISVP2,2013-10-04 06:59:00,
2013-10-04 03:04:00,62.7,61.5,30.13,SSW,205,0.0,0.0,96,0.00,,,0.00,WUHU216DAVISVP2,2013-10-04 07:04:00,
2013-10-04 03:09:00,62.8,61.6,30.13,SSW,205,0.0,0.0,96,0.00,,,0.00,WUHU216DAVISVP2,2013-10-04 07:09:00,
2013-10-04 03:14:00,63.0,61.8,30.13,SSW,205,0.0,0.0,96,0.00,,,0.00,WUHU216DAVISVP2,2013-10-04 07:14:00,
2013-10-04 03:20:00,63.1,61.9,30.13,SSW,205,0.0,0.0,96,0.00,,,0.00,WUHU216DAVISVP2,2013-10-04 07:20:00,
2013-10-04 03:25:00,63.1,61.9,30.13,SSW,205,0.0,0.0,96,0.00,,,0.00,WUHU216DAVISVP2,2013-10-04 07:25:00,
2013-10-04 03:30:00,63.1,61.9,30.13,SSW,205,0.0,0.0,96,0.00,,,0.00,WUHU216DAVISVP2,2013-10-04 07:30:00,
2013-10-04 03:35:00,62.9,61.7,30.13,SSW,205,0.0,0.0,96,0.00,,,0.00,WUHU216DAVISVP2,2013-10-04 07:35:00,
2013-10-04 03:40:00,62.8,61.6,30.13,SSW,205,0.0,0.0,96,0.00,,,0.00,WUHU216DAVISVP2,2013-10-04 07:40:00,
2013-10-04 03:45:00,62.7,61.5,30.13,SSW,205,0.0,0.0,96,0.00,,,0.00,WUHU216DAVISVP2,2013-10-04 07:45:00,
2013-10-04 03:50:00,62.7,61.5,30.13,SSW,205,0.0,0.0,96,0.00,,,0.00,WUHU216DAVISVP2,2013-10-04 07:50:00,
2013-10-04 03:56:00,62.6,61.4,30.13,SSW,205,0.0,0.0,96,0.00,,,0.00,WUHU216DAVISVP2,2013-10-04 07:56:00,
2013-10-04 04:01:00,62.5,61.3,30.13,SSW,205,0.0,0.0,96,0.00,,,0.00,WUHU216DAVISVP2,2013-10-04 08:01:00,
2013-10-04 04:06:00,62.4,61.2,30.13,SSW,205,0.0,0.0,96,0.00,,,0.00,WUHU216DAVISVP2,2013-10-04 08:06:00,
2013-10-04 04:11:00,62.1,60.6,30.13,SSW,205,0.0,1.0,95,0.00,,,0.00,WUHU216DAVISVP2,2013-10-04 08:11:00,
2013-10-04 04:16:00,61.9,60.4,30.13,SSW,205,0.0,1.0,95,0.00,,,0.00,WUHU216DAVISVP2,2013-10-04 08:16:00,
2013-10-04 04:21:00,61.7,60.5,30.13,SSW,205,0.0,1.0,96,0.00,,,0.00,WUHU216DAVISVP2,2013-10-04 08:21:00,
2013-10-04 04:27:00,61.6,60.4,30.13,SSW,205,0.0,1.0,96,0.00,,,0.00,WUHU216DAVISVP2,2013-10-04 08:27:00,
2013-10-04 04:32:00,61.7,60.5,30.13,SSW,205,0.0,0.0,96,0.00,,,0.00,WUHU216DAVISVP2,2013-10-04 08:32:00,
2013-10-04 04:37:00,61.7,60.5,30.14,SSW,205,0.0,0.0,96,0.00,,,0.00,WUHU216DAVISVP2,2013-10-04 08:37:00,
2013-10-04 04:42:00,61.5,60.3,30.14,SSW,205,0.0,0.0,96,0.00,,,0.00,WUHU216DAVISVP2,2013-10-04 08:42:00,
2013-10-04 04:47:00,61.3,60.1,30.14,SSW,205,0.0,0.0,96,0.00,,,0.00,WUHU216DAVISVP2,2013-10-04 08:47:00,
2013-10-04 04:52:00,61.3,60.1,30.14,SSW,205,0.0,0.0,96,0.00,,,0.00,WUHU216DAVISVP2,2013-10-04 08:52:00,
2013-10-04 04:57:00,61.2,60.0,30.14,SSW,205,0.0,0.0,96,0.00,,,0.00,WUHU216DAVISVP2,2013-10-04 08:57:00,
2013-10-04 05:03:00,61.1,59.9,30.13,SSW,205,0.0,0.0,96,0.00,,,0.00,WUHU216DAVISVP2,2013-10-04 09:03:00,
2013-10-04 05:08:00,61.1,59.9,30.13,SSW,205,0.0,0.0,96,0.00,,,0.00,WUHU216DAVISVP2,2013-10-04 09:08:00,
2013-10-04 05:13:00,61.1,59.9,30.13,SSW,205,0.0,0.0,96,0.00,,,0.00,WUHU216DAVISVP2,2013-10-04 09:13:00,
2013-10-04 05:18:00,61.1,59.9,30.14,SSW,205,0.0,0.0,96,0.00,,,0.00,WUHU216DAVISVP2,2013-10-04 09:18:00,
2013-10-04 05:23:00,61.1,59.9,30.14,SSW,205,0.0,0.0,96,0.00,,,0.00,WUHU216DAVISVP2,2013-10-04 09:23:00,
2013-10-04 05:28:00,61.0,59.8,30.14,SSW,205,0.0,0.0,96,0.00,,,0.00,WUHU216DAVISVP2,2013-10-04 09:28:00,
2013-10-04 05:33:00,60.9,59.7,30.14,SSW,205,0.0,0.0,96,0.00,,,0.00,WUHU216DAVISVP2,2013-10-04 09:33:00,
2013-10-04 05:39:00,60.9,59.7,30.14,SSW,205,0.0,0.0,96,0.00,,,0.00,WUHU216DAVISVP2,2013-10-04 09:39:00,
2013-10-04 05:44:00,60.9,59.7,30.14,SSW,205,0.0,0.0,96,0.00,,,0.00,WUHU216DAVISVP2,2013-10-04 09:44:00,
2013-10-04 05:49:00,60.8,59.6,30.15,SSW,205,0.0,0.0,96,0.00,,,0.00,WUHU216DAVISVP2,2013-10-04 09:49:00,
2013-10-04 05:54:00,60.9,59.7,30.15,SSW,205,0.0,0.0,96,0.00,,,0.00,WUHU216DAVISVP2,2013-10-04 09:54:00,
2013-10-04 05:59:00,60.8,59.6,30.15,SSW,205,0.0,0.0,96,0.00,,,0.00,WUHU216DAVISVP2,2013-10-04 09:59:00,
2013-10-04 06:04:00,60.8,59.6,30.15,SSW,205,0.0,0.0,96,0.00,,,0.00,WUHU216DAVISVP2,2013-10-04 10:04:00,
2013-10-04 06:10:00,60.8,59.6,30.15,SSW,205,0.0,0.0,96,0.00,,,0.00,WUHU216DAVISVP2,2013-10-04 10:10:00,
2013-10-04 06:15:00,60.9,59.7,30.15,SSW,205,0.0,0.0,96,0.00,,,0.00,WUHU216DAVISVP2,2013-10-04 10:15:00,
2013-10-04 06:20:00,61.1,60.2,30.15,SSW,205,0.0,0.0,97,0.00,,,0.00,WUHU216DAVISVP2,2013-10-04 10:20:00,
2013-10-04 06:25:00,61.2,60.3,30.15,SSW,205,0.0,0.0,97,0.00,,,0.00,WUHU216DAVISVP2,2013-10-04 10:25:00,
2013-10-04 06:30:00,61.3,60.4,30.15,SSW,205,0.0,0.0,97,0.00,,,0.00,WUHU216DAVISVP2,2013-10-04 10:30:00,
2013-10-04 06:35:00,61.4,60.5,30.15,SSW,205,0.0,0.0,97,0.00,,,0.00,WUHU216DAVISVP2,2013-10-04 10:35:00,
2013-10-04 06:40:00,61.5,60.6,30.15,SSW,205,0.0,0.0,97,0.00,,,0.00,WUHU216DAVISVP2,2013-10-04 10:40:00,
2013-10-04 06:46:00,61.5,60.6,30.15,SSW,205,0.0,0.0,97,0.00,,,0.00,WUHU216DAVISVP2,2013-10-04 10:46:00,
2013-10-04 06:51:00,61.5,60.6,30.15,SSW,205,0.0,0.0,97,0.00,,,0.00,WUHU216DAVISVP2,2013-10-04 10:51:00,
2013-10-04 06:56:00,61.5,60.6,30.15,SSW,205,0.0,0.0,97,0.00,,,0.00,WUHU216DAVISVP2,2013-10-04 10:56:00,
2013-10-04 07:01:00,61.5,60.6,30.16,SSW,205,0.0,0.0,97,0.00,,,0.00,WUHU216DAVISVP2,2013-10-04 11:01:00,
2013-10-04 07:06:00,61.5,60.6,30.16,SSW,205,0.0,0.0,97,0.00,,,0.00,WUHU216DAVISVP2,2013-10-04 11:06:00,
2013-10-04 07:11:00,61.6,60.7,30.16,SSW,205,0.0,0.0,97,0.00,,,0.00,WUHU216DAVISVP2,2013-10-04 11:11:00,
2013-10-04 07:16:00,61.6,60.7,30.16,SSW,205,0.0,0.0,97,0.00,,,0.00,WUHU216DAVISVP2,2013-10-04 11:16:00,
2013-10-04 07:22:00,61.6,60.7,30.16,SSW,205,0.0,0.0,97,0.00,,,0.00,WUHU216DAVISVP2,2013-10-04 11:22:00,
2013-10-04 07:27:00,61.6,60.7,30.16,SSW,205,0.0,0.0,97,0.00,,,0.00,WUHU216DAVISVP2,2013-10-04 11:27:00,
2013-10-04 07:32:00,61.6,60.7,30.16,SSW,205,0.0,0.0,97,0.00,,,0.00,WUHU216DAVISVP2,2013-10-04 11:32:00,
2013-10-04 07:37:00,61.6,60.7,30.16,SSW,205,0.0,0.0,97,0.00,,,0.00,WUHU216DAVISVP2,2013-10-04 11:37:00,
2013-10-04 07:42:00,61.6,60.7,30.17,SSW,205,0.0,0.0,97,0.00,,,0.00,WUHU216DAVISVP2,2013-10-04 11:42:00,
2013-10-04 07:47:00,61.5,60.3,30.17,SSW,205,0.0,0.0,96,0.00,,,0.00,WUHU216DAVISVP2,2013-10-04 11:47:00,
2013-10-04 07:52:00,61.5,60.6,30.17,SSW,205,0.0,0.0,97,0.00,,,0.00,WUHU216DAVISVP2,2013-10-04 11:52:00,
2013-10-04 07:58:00,61.6,60.7,30.17,SSW,205,0.0,0.0,97,0.00,,,0.00,WUHU216DAVISVP2,2013-10-04 11:58:00,
2013-10-04 08:03:00,61.6,60.7,30.17,SSW,205,0.0,0.0,97,0.00,,,0.00,WUHU216DAVISVP2,2013-10-04 12:03:00,
2013-10-04 08:08:00,61.7,60.8,30.17,SSW,205,0.0,0.0,97,0.00,,,0.00,WUHU216DAVISVP2,2013-10-04 12:08:00,
2013-10-04 08:13:00,61.8,60.9,30.18,SSW,205,0.0,0.0,97,0.00,,,0.00,WUHU216DAVISVP2,2013-10-04 12:13:00,
2013-10-04 08:18:00,61.9,61.0,30.18,SSW,205,0.0,0.0,97,0.00,,,0.00,WUHU216DAVISVP2,2013-10-04 12:18:00,
2013-10-04 08:24:00,62.1,61.2,30.18,SSW,205,0.0,0.0,97,0.00,,,0.00,WUHU216DAVISVP2,2013-10-04 12:24:00,
2013-10-04 08:29:00,62.3,61.4,30.18,SSW,205,0.0,0.0,97,0.00,,,0.00,WUHU216DAVISVP2,2013-10-04 12:29:00,
2013-10-04 08:34:00,62.6,61.7,30.18,SSW,205,0.0,0.0,97,0.00,,,0.00,WUHU216DAVISVP2,2013-10-04 12:34:00,
2013-10-04 08:39:00,62.9,62.0,30.18,SSW,205,0.0,0.0,97,0.00,,,0.00,WUHU216DAVISVP2,2013-10-04 12:39:00,
2013-10-04 08:44:00,63.4,62.5,30.18,ENE,74,0.0,0.0,97,0.00,,,0.00,WUHU216DAVISVP2,2013-10-04 12:44:00,
2013-10-04 08:49:00,63.8,62.9,30.18,NE,53,0.0,0.0,97,0.00,,,0.00,WUHU216DAVISVP2,2013-10-04 12:49:00,
2013-10-04 08:55:00,64.2,63.3,30.19,NE,55,0.0,0.0,97,0.00,,,0.00,WUHU216DAVISVP2,2013-10-04 12:55:00,
2013-10-04 09:00:00,64.4,63.5,30.19,NE,55,0.0,0.0,97,0.00,,,0.00,WUHU216DAVISVP2,2013-10-04 13:00:00,
2013-10-04 09:05:00,64.7,63.8,30.19,NE,55,0.0,0.0,97,0.00,,,0.00,WUHU216DAVISVP2,2013-10-04 13:05:00,
2013-10-04 09:10:00,65.2,64.3,30.19,NE,55,0.0,0.0,97,0.00,,,0.00,WUHU216DAVISVP2,2013-10-04 13:10:00,
2013-10-04 09:15:00,65.6,64.7,30.19,NE,55,0.0,0.0,97,0.00,,,0.00,WUHU216DAVISVP2,2013-10-04 13:15:00,
2013-10-04 09:20:00,65.7,64.8,30.19,NE,55,0.0,0.0,97,0.00,,,0.00,WUHU216DAVISVP2,2013-10-04 13:20:00,
2013-10-04 09:25:00,65.8,64.9,30.19,NE,55,0.0,0.0,97,0.00,,,0.00,WUHU216DAVISVP2,2013-10-04 13:25:00,
2013-10-04 09:31:00,66.1,65.2,30.19,NE,55,0.0,0.0,97,0.00,,,0.00,WUHU216DAVISVP2,2013-10-04 13:31:00,
2013-10-04 09:36:00,66.2,65.3,30.19,NE,55,0.0,0.0,97,0.00,,,0.00,WUHU216DAVISVP2,2013-10-04 13:36:00,
2013-10-04 09:41:00,66.6,65.7,30.19,NE,55,0.0,0.0,97,0.00,,,0.00,WUHU216DAVISVP2,2013-10-04 13:41:00,
2013-10-04 09:46:00,66.7,65.8,30.20,NE,55,0.0,0.0,97,0.00,,,0.00,WUHU216DAVISVP2,2013-10-04 13:46:00,
2013-10-04 09:51:00,66.9,66.0,30.20,NE,55,0.0,0.0,97,0.00,,,0.00,WUHU216DAVISVP2,2013-10-04 13:51:00,
2013-10-04 09:56:00,67.4,66.5,30.20,NE,53,0.0,0.0,97,0.00,,,0.00,WUHU216DAVISVP2,2013-10-04 13:56:00,
2013-10-04 10:02:00,67.6,66.4,30.20,NE,52,0.0,0.0,96,0.00,,,0.00,WUHU216DAVISVP2,2013-10-04 14:02:00,
2013-10-04 10:07:00,67.9,66.7,30.20,NE,52,0.0,0.0,96,0.00,,,0.00,WUHU216DAVISVP2,2013-10-04 14:07:00,
2013-10-04 10:12:00,68.2,66.7,30.20,NE,53,0.0,0.0,95,0.00,,,0.00,WUHU216DAVISVP2,2013-10-04 14:12:00,
2013-10-04 10:17:00,68.4,66.6,30.20,NE,53,0.0,0.0,94,0.00,,,0.00,WUHU216DAVISVP2,2013-10-04 14:17:00,
2013-10-04 10:22:00,68.7,66.6,30.20,NE,53,0.0,0.0,93,0.00,,,0.00,WUHU216DAVISVP2,2013-10-04 14:22:00,
2013-10-04 10:27:00,69.0,66.6,30.20,NE,53,0.0,0.0,92,0.00,,,0.00,WUHU216DAVISVP2,2013-10-04 14:27:00,
2013-10-04 10:32:00,69.5,66.7,30.20,NE,53,0.0,0.0,91,0.00,,,0.00,WUHU216DAVISVP2,2013-10-04 14:32:00,
2013-10-04 10:38:00,69.9,66.2,30.21,NE,53,0.0,0.0,88,0.00,,,0.00,WUHU216DAVISVP2,2013-10-04 14:38:00,
2013-10-04 10:43:00,70.2,66.8,30.20,NE,53,0.0,0.0,89,0.00,,,0.00,WUHU216DAVISVP2,2013-10-04 14:43:00,
2013-10-04 10:48:00,70.5,67.1,30.20,NE,53,0.0,0.0,89,0.00,,,0.00,WUHU216DAVISVP2,2013-10-04 14:48:00,
2013-10-04 10:53:00,70.9,67.2,30.20,ENE,78,0.0,0.0,88,0.00,,,0.00,WUHU216DAVISVP2,2013-10-04 14:53:00,
2013-10-04 10:58:00,71.2,67.5,30.20,ENE,78,0.0,0.0,88,0.00,,,0.00,WUHU216DAVISVP2,2013-10-04 14:58:00,
2013-10-04 11:03:00,71.7,67.6,30.20,ENE,78,0.0,0.0,87,0.00,,,0.00,WUHU216DAVISVP2,2013-10-04 15:03:00,
2013-10-04 11:08:00,72.1,68.0,30.20,ENE,78,0.0,0.0,87,0.00,,,0.00,WUHU216DAVISVP2,2013-10-04 15:08:00,
2013-10-04 11:14:00,72.4,68.0,30.20,ENE,78,0.0,0.0,86,0.00,,,0.00,WUHU216DAVISVP2,2013-10-04 15:14:00,
2013-10-04 11:19:00,72.5,68.1,30.20,ENE,78,0.0,0.0,86,0.00,,,0.00,WUHU216DAVISVP2,2013-10-04 15:19:00,
2013-10-04 11:24:00,72.6,68.2,30.20,ENE,78,0.0,0.0,86,0.00,,,0.00,WUHU216DAVISVP2,2013-10-04 15:24:00,
2013-10-04 11:29:00,72.8,68.4,30.20,ENE,78,0.0,0.0,86,0.00,,,0.00,WUHU216DAVISVP2,2013-10-04 15:29:00,
2013-10-04 11:34:00,73.0,68.6,30.20,East,80,0.0,0.0,86,0.00,,,0.00,WUHU216DAVISVP2,2013-10-04 15:34:00,
2013-10-04 11:39:00,73.1,68.4,30.20,East,80,0.0,0.0,85,0.00,,,0.00,WUHU216DAVISVP2,2013-10-04 15:39:00,
2013-10-04 11:44:00,73.4,68.6,30.20,SE,141,0.0,0.0,85,0.00,,,0.00,WUHU216DAVISVP2,2013-10-04 15:44:00,
2013-10-04 11:50:00,73.5,68.7,30.20,SE,141,0.0,0.0,85,0.00,,,0.00,WUHU216DAVISVP2,2013-10-04 15:50:00,
2013-10-04 11:55:00,73.6,68.8,30.20,SE,141,0.0,0.0,85,0.00,,,0.00,WUHU216DAVISVP2,2013-10-04 15:55:00,
2013-10-04 12:00:00,73.7,68.3,30.20,SE,142,0.0,0.0,83,0.00,,,0.00,WUHU216DAVISVP2,2013-10-04 16:00:00,
2013-10-04 12:05:00,73.7,68.6,30.20,SE,144,0.0,0.0,84,0.00,,,0.00,WUHU216DAVISVP2,2013-10-04 16:05:00,
2013-10-04 12:10:00,73.8,68.0,30.20,SE,144,0.0,0.0,82,0.00,,,0.00,WUHU216DAVISVP2,2013-10-04 16:10:00,
2013-10-04 12:15:00,74.1,68.0,30.20,SE,144,0.0,0.0,81,0.00,,,0.00,WUHU216DAVISVP2,2013-10-04 16:15:00,
2013-10-04 12:20:00,74.2,68.1,30.20,SSE,153,0.0,0.0,81,0.00,,,0.00,WUHU216DAVISVP2,2013-10-04 16:20:00,
2013-10-04 12:26:00,74.4,68.5,30.20,SSE,154,0.0,0.0,82,0.00,,,0.00,WUHU216DAVISVP2,2013-10-04 16:26:00,
2013-10-04 12:31:00,74.9,68.7,30.19,SSE,153,0.0,0.0,81,0.00,,,0.00,WUHU216DAVISVP2,2013-10-04 16:31:00,
2013-10-04 12:36:00,75.4,69.2,30.19,SSE,153,0.0,0.0,81,0.00,,,0.00,WUHU216DAVISVP2,2013-10-04 16:36:00,
2013-10-04 12:41:00,76.0,69.5,30.19,SSE,153,0.0,0.0,80,0.00,,,0.00,WUHU216DAVISVP2,2013-10-04 16:41:00,
2013-10-04 12:46:00,76.4,69.9,30.19,SSE,154,0.0,0.0,80,0.00,,,0.00,WUHU216DAVISVP2,2013-10-04 16:46:00,
2013-10-04 12:51:00,76.6,68.6,30.19,SW,219,0.0,0.0,76,0.00,,,0.00,WUHU216DAVISVP2,2013-10-04 16:51:00,
2013-10-04 12:57:00,77.1,69.7,30.19,SW,219,0.0,0.0,78,0.00,,,0.00,WUHU216DAVISVP2,2013-10-04 16:57:00,
2013-10-04 13:02:00,77.5,69.3,30.19,SW,219,0.0,0.0,76,0.00,,,0.00,WUHU216DAVISVP2,2013-10-04 17:02:00,
2013-10-04 13:07:00,77.6,69.2,30.19,SW,219,0.0,0.0,75,0.00,,,0.00,WUHU216DAVISVP2,2013-10-04 17:07:00,
2013-10-04 13:12:00,78.3,70.9,30.18,SW,221,0.0,2.0,78,0.00,,,0.00,WUHU216DAVISVP2,2013-10-04 17:12:00,
2013-10-04 13:17:00,78.9,70.9,30.18,SSW,208,0.0,6.0,76,0.00,,,0.00,WUHU216DAVISVP2,2013-10-04 17:17:00,
2013-10-04 13:22:00,78.4,69.2,30.18,SSW,208,0.0,6.0,73,0.00,,,0.00,WUHU216DAVISVP2,2013-10-04 17:22:00,
2013-10-04 13:28:00,78.8,69.6,30.17,SSW,209,0.0,6.0,73,0.00,,,0.00,WUHU216DAVISVP2,2013-10-04 17:28:00,
2013-10-04 13:33:00,79.3,70.3,30.17,SSW,209,0.0,6.0,74,0.00,,,0.00,WUHU216DAVISVP2,2013-10-04 17:33:00,
2013-10-04 13:58:00,80.7,70.2,30.16,SSW,212,0.0,3.0,70,0.00,,,0.00,WUHU216DAVISVP2,2013-10-04 17:58:00,
2013-10-04 14:04:00,80.8,70.7,30.15,SSW,212,0.0,3.0,71,0.00,,,0.00,WUHU216DAVISVP2,2013-10-04 18:04:00,
2013-10-04 14:09:00,81.2,71.1,30.15,SSW,196,0.0,5.0,71,0.00,,,0.00,WUHU216DAVISVP2,2013-10-04 18:09:00,
2013-10-04 14:14:00,81.0,69.7,30.15,South,190,0.0,5.0,68,0.00,,,0.00,WUHU216DAVISVP2,2013-10-04 18:14:00,
2013-10-04 14:19:00,80.5,69.6,30.15,South,187,4.0,5.0,69,0.00,,,0.00,WUHU216DAVISVP2,2013-10-04 18:19:00,
2013-10-04 14:24:00,81.0,70.9,30.14,South,186,0.0,5.0,71,0.00,,,0.00,WUHU216DAVISVP2,2013-10-04 18:24:00,
2013-10-04 14:29:00,81.4,70.9,30.14,SW,221,0.0,5.0,70,0.00,,,0.00,WUHU216DAVISVP2,2013-10-04 18:29:00,
2013-10-04 14:35:00,81.5,69.9,30.14,SW,221,0.0,5.0,68,0.00,,,0.00,WUHU216DAVISVP2,2013-10-04 18:35:00,
2013-10-04 14:40:00,81.6,70.3,30.14,SW,221,0.0,4.0,68,0.00,,,0.00,WUHU216DAVISVP2,2013-10-04 18:40:00,
2013-10-04 14:45:00,81.3,70.2,30.14,SW,221,0.0,2.0,69,0.00,,,0.00,WUHU216DAVISVP2,2013-10-04 18:45:00,
2013-10-04 14:50:00,81.4,69.8,30.14,SW,221,0.0,2.0,68,0.00,,,0.00,WUHU216DAVISVP2,2013-10-04 18:50:00,
2013-10-04 14:55:00,81.4,69.4,30.13,SW,221,0.0,3.0,67,0.00,,,0.00,WUHU216DAVISVP2,2013-10-04 18:55:00,
2013-10-04 15:00:00,81.8,70.0,30.13,SW,221,0.0,3.0,67,0.00,,,0.00,WUHU216DAVISVP2,2013-10-04 19:00:00,
2013-10-04 15:06:00,81.4,69.6,30.13,SW,226,0.0,3.0,67,0.00,,,0.00,WUHU216DAVISVP2,2013-10-04 19:06:00,
2013-10-04 15:11:00,81.6,70.7,30.13,SW,222,1.0,4.0,69,0.00,,,0.00,WUHU216DAVISVP2,2013-10-04 19:11:00,
2013-10-04 15:16:00,81.8,70.4,30.13,SW,236,0.0,4.0,68,0.00,,,0.00,WUHU216DAVISVP2,2013-10-04 19:16:00,
2013-10-04 15:21:00,81.5,69.7,30.13,SW,234,0.0,4.0,67,0.00,,,0.00,WUHU216DAVISVP2,2013-10-04 19:21:00,
2013-10-04 15:26:00,81.2,69.0,30.13,SW,234,0.0,4.0,66,0.00,,,0.00,WUHU216DAVISVP2,2013-10-04 19:26:00,
2013-10-04 15:31:00,81.6,70.3,30.13,SW,223,0.0,3.0,68,0.00,,,0.00,WUHU216DAVISVP2,2013-10-04 19:31:00,
2013-10-04 15:37:00,81.9,70.1,30.13,SW,223,0.0,3.0,67,0.00,,,0.00,WUHU216DAVISVP2,2013-10-04 19:37:00,
2013-10-04 15:42:00,82.2,70.0,30.13,SW,223,0.0,3.0,66,0.00,,,0.00,WUHU216DAVISVP2,2013-10-04 19:42:00,
2013-10-04 15:50:00,82.2,69.5,30.13,SW,223,0.0,3.0,65,0.00,,,0.00,WUHU216DAVISVP2,2013-10-04 19:50:00,
2013-10-04 15:55:00,82.2,70.8,30.12,SSW,208,0.0,5.0,68,0.00,,,0.00,WUHU216DAVISVP2,2013-10-04 19:55:00,
2013-10-04 16:00:00,82.5,71.1,30.12,SSW,208,0.0,5.0,68,0.00,,,0.00,WUHU216DAVISVP2,2013-10-04 20:00:00,
2013-10-04 16:05:00,82.5,70.7,30.12,SSW,208,0.0,5.0,67,0.00,,,0.00,WUHU216DAVISVP2,2013-10-04 20:05:00,
2013-10-04 16:10:00,82.7,70.0,30.12,SSW,207,0.0,3.0,65,0.00,,,0.00,WUHU216DAVISVP2,2013-10-04 20:10:00,
2013-10-04 16:15:00,83.1,70.6,30.12,SSW,207,0.0,2.0,66,0.00,,,0.00,WUHU216DAVISVP2,2013-10-04 20:15:00,
2013-10-04 16:21:00,83.6,69.9,30.12,SSW,207,0.0,0.0,63,0.00,,,0.00,WUHU216DAVISVP2,2013-10-04 20:21:00,
2013-10-04 16:26:00,83.4,71.6,30.12,SSW,206,0.0,3.0,67,0.00,,,0.00,WUHU216DAVISVP2,2013-10-04 20:26:00,
2013-10-04 16:31:00,83.5,70.9,30.12,SSW,206,0.0,3.0,66,0.00,,,0.00,WUHU216DAVISVP2,2013-10-04 20:31:00,
2013-10-04 16:36:00,83.5,71.2,30.12,SSW,205,0.0,3.0,66,0.00,,,0.00,WUHU216DAVISVP2,2013-10-04 20:36:00,
2013-10-04 16:41:00,83.9,72.0,30.12,SSW,205,0.0,3.0,67,0.00,,,0.00,WUHU216DAVISVP2,2013-10-04 20:41:00,
2013-10-04 16:46:00,83.6,71.3,30.12,SSW,192,0.0,4.0,66,0.00,,,0.00,WUHU216DAVISVP2,2013-10-04 20:46:00,
2013-10-04 16:52:00,83.3,71.5,30.12,SSW,192,0.0,4.0,67,0.00,,,0.00,WUHU216DAVISVP2,2013-10-04 20:52:00,
2013-10-04 16:57:00,83.4,71.1,30.12,SSW,192,0.0,4.0,66,0.00,,,0.00,WUHU216DAVISVP2,2013-10-04 20:57:00,
2013-10-04 17:02:00,83.1,69.0,30.12,SSW,192,0.0,4.0,62,0.00,,,0.00,WUHU216DAVISVP2,2013-10-04 21:02:00,
2013-10-04 17:07:00,83.2,69.8,30.12,SSW,192,0.0,3.0,64,0.00,,,0.00,WUHU216DAVISVP2,2013-10-04 21:07:00,
2013-10-04 17:12:00,82.9,68.5,30.12,SSW,192,0.0,2.0,62,0.00,,,0.00,WUHU216DAVISVP2,2013-10-04 21:12:00,
2013-10-04 17:17:00,82.7,69.7,30.12,SSW,192,0.0,4.0,65,0.00,,,0.00,WUHU216DAVISVP2,2013-10-04 21:17:00,
2013-10-04 17:23:00,82.6,70.1,30.12,SSW,192,0.0,4.0,66,0.00,,,0.00,WUHU216DAVISVP2,2013-10-04 21:23:00,
2013-10-04 17:28:00,82.5,69.8,30.12,SSW,192,0.0,4.0,65,0.00,,,0.00,WUHU216DAVISVP2,2013-10-04 21:28:00,
2013-10-04 17:33:00,82.0,68.9,30.12,SSW,192,0.0,4.0,64,0.00,,,0.00,WUHU216DAVISVP2,2013-10-04 21:33:00,
2013-10-04 17:39:00,81.7,70.4,30.11,SSW,192,0.0,0.0,68,0.00,,,0.00,WUHU216DAVISVP2,2013-10-04 21:39:00,
2013-10-04 17:44:00,81.2,70.3,30.11,SSW,192,0.0,0.0,69,0.00,,,0.00,WUHU216DAVISVP2,2013-10-04 21:44:00,
2013-10-04 17:49:00,80.6,71.3,30.11,SSW,192,0.0,0.0,73,0.00,,,0.00,WUHU216DAVISVP2,2013-10-04 21:49:00,
2013-10-04 17:54:00,80.2,70.6,30.11,SSW,192,0.0,0.0,72,0.00,,,0.00,WUHU216DAVISVP2,2013-10-04 21:54:00,
2013-10-04 17:59:00,79.8,70.6,30.11,SSW,192,0.0,0.0,73,0.00,,,0.00,WUHU216DAVISVP2,2013-10-04 21:59:00,
2013-10-04 18:04:00,79.6,70.8,30.11,SSW,192,0.0,0.0,74,0.00,,,0.00,WUHU216DAVISVP2,2013-10-04 22:04:00,
2013-10-04 18:09:00,79.3,70.5,30.11,SSW,192,0.0,0.0,74,0.00,,,0.00,WUHU216DAVISVP2,2013-10-04 22:09:00,
2013-10-04 18:15:00,79.2,71.1,30.11,SSW,192,0.0,0.0,76,0.00,,,0.00,WUHU216DAVISVP2,2013-10-04 22:15:00,
2013-10-04 18:20:00,78.9,70.9,30.11,SSW,192,0.0,0.0,76,0.00,,,0.00,WUHU216DAVISVP2,2013-10-04 22:20:00,
2013-10-04 18:26:00,78.5,70.8,30.11,SSW,192,0.0,0.0,77,0.00,,,0.00,WUHU216DAVISVP2,2013-10-04 22:26:00,
2013-10-04 18:31:00,78.1,70.8,30.11,SSW,192,0.0,0.0,78,0.00,,,0.00,WUHU216DAVISVP2,2013-10-04 22:31:00,
2013-10-04 18:37:00,77.7,70.8,30.11,SSW,192,0.0,0.0,79,0.00,,,0.00,WUHU216DAVISVP2,2013-10-04 22:37:00,
2013-10-04 18:42:00,77.3,70.8,30.11,SSW,192,0.0,0.0,80,0.00,,,0.00,WUHU216DAVISVP2,2013-10-04 22:42:00,
2013-10-04 18:47:00,76.8,70.6,30.11,SSW,192,0.0,0.0,81,0.00,,,0.00,WUHU216DAVISVP2,2013-10-04 22:47:00,
2013-10-04 18:53:00,76.4,70.6,30.11,SSW,192,0.0,0.0,82,0.00,,,0.00,WUHU216DAVISVP2,2013-10-04 22:53:00,
2013-10-04 18:58:00,76.0,70.2,30.11,SSW,192,0.0,0.0,82,0.00,,,0.00,WUHU216DAVISVP2,2013-10-04 22:58:00,
2013-10-04 19:03:00,75.6,70.1,30.11,SSW,192,0.0,0.0,83,0.00,,,0.00,WUHU216DAVISVP2,2013-10-04 23:03:00,
2013-10-04 19:09:00,75.1,70.0,30.12,SSW,192,0.0,0.0,84,0.00,,,0.00,WUHU216DAVISVP2,2013-10-04 23:09:00,
2013-10-04 19:14:00,74.6,69.4,30.11,SSW,192,0.0,0.0,84,0.00,,,0.00,WUHU216DAVISVP2,2013-10-04 23:14:00,
2013-10-04 19:19:00,74.1,69.3,30.12,SSW,192,0.0,0.0,85,0.00,,,0.00,WUHU216DAVISVP2,2013-10-04 23:19:00,
2013-10-04 19:25:00,73.5,69.1,30.12,SSW,192,0.0,0.0,86,0.00,,,0.00,WUHU216DAVISVP2,2013-10-04 23:25:00,
2013-10-04 19:30:00,73.1,68.7,30.11,SSW,192,0.0,0.0,86,0.00,,,0.00,WUHU216DAVISVP2,2013-10-04 23:30:00,
2013-10-04 19:35:00,72.6,68.5,30.12,SSW,192,0.0,0.0,87,0.00,,,0.00,WUHU216DAVISVP2,2013-10-04 23:35:00,
2013-10-04 19:40:00,72.3,68.2,30.12,SSW,192,0.0,0.0,87,0.00,,,0.00,WUHU216DAVISVP2,2013-10-04 23:40:00,
2013-10-04 19:46:00,72.0,68.2,30.12,SSW,192,0.0,0.0,88,0.00,,,0.00,WUHU216DAVISVP2,2013-10-04 23:46:00,
2013-10-04 19:51:00,71.6,67.9,30.12,SSW,192,0.0,0.0,88,0.00,,,0.00,WUHU216DAVISVP2,2013-10-04 23:51:00,
2013-10-04 19:56:00,71.3,67.6,30.11,SSW,192,0.0,0.0,88,0.00,,,0.00,WUHU216DAVISVP2,2013-10-04 23:56:00,
2013-10-04 20:02:00,71.1,67.7,30.12,SSW,192,0.0,0.0,89,0.00,,,0.00,WUHU216DAVISVP2,2013-10-05 00:02:00,
2013-10-04 20:07:00,70.9,67.5,30.12,SSW,192,0.0,0.0,89,0.00,,,0.00,WUHU216DAVISVP2,2013-10-05 00:07:00,
2013-10-04 20:12:00,70.7,67.6,30.12,SSW,192,0.0,0.0,90,0.00,,,0.00,WUHU216DAVISVP2,2013-10-05 00:12:00,
2013-10-04 20:17:00,70.5,67.4,30.12,SSW,192,0.0,0.0,90,0.00,,,0.00,WUHU216DAVISVP2,2013-10-05 00:17:00,
2013-10-04 20:22:00,70.3,67.2,30.12,SSW,192,0.0,0.0,90,0.00,,,0.00,WUHU216DAVISVP2,2013-10-05 00:22:00,
2013-10-04 20:27:00,70.1,67.3,30.12,SSW,192,0.0,0.0,91,0.00,,,0.00,WUHU216DAVISVP2,2013-10-05 00:27:00,
2013-10-04 20:33:00,69.9,67.1,30.12,SSW,192,0.0,0.0,91,0.00,,,0.00,WUHU216DAVISVP2,2013-10-05 00:33:00,
2013-10-04 20:39:00,69.7,67.0,30.12,SSW,192,0.0,0.0,91,0.00,,,0.00,WUHU216DAVISVP2,2013-10-05 00:39:00,
2013-10-04 20:44:00,69.5,66.8,30.12,SSW,192,0.0,0.0,91,0.00,,,0.00,WUHU216DAVISVP2,2013-10-05 00:44:00,
2013-10-04 20:49:00,69.4,67.0,30.13,SSW,192,0.0,0.0,92,0.00,,,0.00,WUHU216DAVISVP2,2013-10-05 00:49:00,
2013-10-04 20:54:00,69.2,66.7,30.13,SSW,192,0.0,0.0,92,0.00,,,0.00,WUHU216DAVISVP2,2013-10-05 00:54:00,
2013-10-04 20:59:00,69.0,66.6,30.13,SSW,192,0.0,0.0,92,0.00,,,0.00,WUHU216DAVISVP2,2013-10-05 00:59:00,
2013-10-04 21:04:00,68.8,66.4,30.13,SSW,192,0.0,0.0,92,0.00,,,0.00,WUHU216DAVISVP2,2013-10-05 01:04:00,
2013-10-04 21:09:00,68.6,66.2,30.13,SSW,192,0.0,0.0,92,0.00,,,0.00,WUHU216DAVISVP2,2013-10-05 01:09:00,
2013-10-04 21:14:00,68.5,66.4,30.13,SSW,192,0.0,0.0,93,0.00,,,0.00,WUHU216DAVISVP2,2013-10-05 01:14:00,
2013-10-04 21:19:00,68.4,66.0,30.13,SSW,192,0.0,0.0,92,0.00,,,0.00,WUHU216DAVISVP2,2013-10-05 01:19:00,
2013-10-04 21:25:00,68.2,66.1,30.13,SSW,192,0.0,0.0,93,0.00,,,0.00,WUHU216DAVISVP2,2013-10-05 01:25:00,
2013-10-04 21:30:00,68.1,66.0,30.13,SSW,192,0.0,0.0,93,0.00,,,0.00,WUHU216DAVISVP2,2013-10-05 01:30:00,
2013-10-04 21:35:00,68.0,65.9,30.13,SSW,192,0.0,0.0,93,0.00,,,0.00,WUHU216DAVISVP2,2013-10-05 01:35:00,
2013-10-04 21:40:00,67.9,65.8,30.13,SSW,192,0.0,0.0,93,0.00,,,0.00,WUHU216DAVISVP2,2013-10-05 01:40:00,
2013-10-04 21:45:00,67.9,65.8,30.14,SSW,192,0.0,0.0,93,0.00,,,0.00,WUHU216DAVISVP2,2013-10-05 01:45:00,
2013-10-04 21:50:00,67.8,66.0,30.14,SSW,192,0.0,0.0,94,0.00,,,0.00,WUHU216DAVISVP2,2013-10-05 01:50:00,
2013-10-04 21:55:00,67.7,65.9,30.14,SSW,192,0.0,0.0,94,0.00,,,0.00,WUHU216DAVISVP2,2013-10-05 01:55:00,
2013-10-04 22:00:00,67.6,65.8,30.14,SSW,192,0.0,0.0,94,0.00,,,0.00,WUHU216DAVISVP2,2013-10-05 02:00:00,
2013-10-04 22:06:00,67.6,65.8,30.14,SSW,192,0.0,0.0,94,0.00,,,0.00,WUHU216DAVISVP2,2013-10-05 02:06:00,
2013-10-04 22:11:00,67.6,65.8,30.14,SSW,192,0.0,0.0,94,0.00,,,0.00,WUHU216DAVISVP2,2013-10-05 02:11:00,
2013-10-04 22:18:00,67.3,65.5,30.14,SSW,192,0.0,0.0,94,0.00,,,0.00,WUHU216DAVISVP2,2013-10-05 02:18:00,
2013-10-04 22:23:00,67.2,65.4,30.14,SSW,192,0.0,0.0,94,0.00,,,0.00,WUHU216DAVISVP2,2013-10-05 02:23:00,
2013-10-04 22:28:00,67.1,65.3,30.14,SSW,192,0.0,0.0,94,0.00,,,0.00,WUHU216DAVISVP2,2013-10-05 02:28:00,
2013-10-04 22:34:00,67.0,65.2,30.14,SSW,192,0.0,0.0,94,0.00,,,0.00,WUHU216DAVISVP2,2013-10-05 02:34:00,
2013-10-04 22:39:00,66.8,65.0,30.14,SSW,192,0.0,0.0,94,0.00,,,0.00,WUHU216DAVISVP2,2013-10-05 02:39:00,
2013-10-04 22:45:00,66.8,65.3,30.14,SSW,192,0.0,0.0,95,0.00,,,0.00,WUHU216DAVISVP2,2013-10-05 02:45:00,
2013-10-04 22:50:00,66.8,65.3,30.14,SSW,192,0.0,0.0,95,0.00,,,0.00,WUHU216DAVISVP2,2013-10-05 02:50:00,
2013-10-04 22:56:00,66.8,65.3,30.14,SSW,192,0.0,0.0,95,0.00,,,0.00,WUHU216DAVISVP2,2013-10-05 02:56:00,
2013-10-04 23:02:00,66.7,65.2,30.14,SSW,192,0.0,0.0,95,0.00,,,0.00,WUHU216DAVISVP2,2013-10-05 03:02:00,
2013-10-04 23:07:00,66.6,65.1,30.14,SSW,192,0.0,0.0,95,0.00,,,0.00,WUHU216DAVISVP2,2013-10-05 03:07:00,
2013-10-04 23:13:00,66.4,64.9,30.14,SSW,192,0.0,0.0,95,0.00,,,0.00,WUHU216DAVISVP2,2013-10-05 03:13:00,
2013-10-04 23:18:00,66.4,64.9,30.14,SSW,192,0.0,0.0,95,0.00,,,0.00,WUHU216DAVISVP2,2013-10-05 03:18:00,
2013-10-04 23:24:00,66.4,64.9,30.14,SSW,192,0.0,0.0,95,0.00,,,0.00,WUHU216DAVISVP2,2013-10-05 03:24:00,
2013-10-04 23:30:00,66.4,64.9,30.14,SSW,192,0.0,0.0,95,0.00,,,0.00,WUHU216DAVISVP2,2013-10-05 03:30:00,
2013-10-04 23:36:00,66.3,64.8,30.14,SSW,192,0.0,0.0,95,0.00,,,0.00,WUHU216DAVISVP2,2013-10-05 03:36:00,
2013-10-04 23:41:00,66.2,64.7,30.14,SSW,192,0.0,0.0,95,0.00,,,0.00,WUHU216DAVISVP2,2013-10-05 03:41:00,
2013-10-04 23:47:00,66.2,64.7,30.14,SSW,192,0.0,0.0,95,0.00,,,0.00,WUHU216DAVISVP2,2013-10-05 03:47:00,
2013-10-04 23:52:00,66.0,64.5,30.14,SSW,192,0.0,0.0,95,0.00,,,0.00,WUHU216DAVISVP2,2013-10-05 03:52:00,
2013-10-04 23:58:00,65.9,64.4,30.15,SSW,192,0.0,0.0,95,0.00,,,0.00,WUHU216DAVISVP2,2013-10-05 03:58:00,